Pittsburgh, Pennsylvania
Traffic Map
Current Weather Conditions
Pittsburgh, Pennsylvania
Broken Clouds
Broken Clouds
79°
Feels Like: 80°
Wind Chill: 79° Ceiling: 8500
Heat Index: 80° Visibility: 10mi
Dew Point: 58° Wind: 0mph
Humidity: 48% Direction: ° ()
Pressure: 29.96in Gusts: 0mph
Raw Report DataKAGC 280453Z 00000KT 10SM BKN085 26/14 A2996 RMK AO2 SLP136 T02610144 403170211
Traffic Incident Summary
Active as of:
Severity:
Category:
InformationThere was an issue retrieving the traffic information for this location. Please try a different location or try again shortly.
Advertisements
Track Severe Weather on mobile